Data for 08/14/2010

Time Sea-Level Adjusted Pressure Absolute Pressure Temperature Relative Humidity Dew Point   
(mb) (inHg) (mb) (inHg) (C) (F) (%) (C) (F)
00:05 1023 30.21 852 25.16 10.2 50.3 77 6.3 43.4
00:10 1023 30.21 852 25.16 10.2 50.4 77 6.4 43.6
00:15 1023 30.21 852 25.16 10.1 50.1 78 6.4 43.6
00:20 1023 30.21 852 25.16 9.9 49.9 78 6.4 43.5
00:25 1023 30.21 852 25.16 9.9 49.8 77 6.1 43
00:30 1023 30.21 852 25.16 10 50 77 6.2 43.1
00:35 1023 30.21 852 25.16 10 49.9 78 6.3 43.3
00:40 1023 30.21 852 25.16 10 49.9 77 6.2 43.1
00:45 1023 30.21 852 25.16 9.9 49.9 78 6.2 43.2
00:50 1023 30.21 852 25.16 9.8 49.6 78 6.1 42.9
00:55 1023 30.21 852 25.16 9.8 49.7 78 6.1 43
01:00 1023 30.21 852 25.16 9.8 49.7 77 6.1 43
01:05 1023 30.21 852 25.16 9.8 49.6 79 6.3 43.3
01:10 1023 30.21 852 25.16 9.6 49.3 79 6.2 43.2
01:15 1023 30.21 852 25.16 9.6 49.3 79 6.2 43.2
01:20 1023 30.21 852 25.16 9.9 49.8 78 6.2 43.2
01:25 1023 30.21 852 25.16 10.1 50.3 78 6.5 43.7
01:30 1023 30.21 852 25.16 10.2 50.4 78 6.5 43.7
01:35 1023 30.21 852 25.16 10.4 50.7 77 6.5 43.8
01:40 1023 30.21 852 25.16 10.5 50.9 77 6.7 44
01:45 1023 30.21 853 25.19 10.6 51 77 6.7 44.1
01:50 1023 30.21 853 25.19 10.5 50.9 78 6.8 44.2
01:55 1023 30.21 852 25.16 10.5 50.8 78 6.8 44.2
02:00 1023 30.21 852 25.16 10.5 50.8 78 6.9 44.4
02:05 1023 30.21 853 25.19 10.5 50.9 78 6.9 44.4
02:10 1023 30.21 853 25.19 10.5 50.9 79 6.9 44.5
02:15 1023 30.21 853 25.19 10.5 51 78 6.9 44.5
02:20 1023 30.21 853 25.19 10.6 51.1 78 6.9 44.4
02:25 1023 30.21 853 25.19 10.7 51.2 78 6.9 44.5
02:30 1023 30.21 853 25.19 10.7 51.2 78 7 44.6
02:35 1023 30.21 853 25.19 10.7 51.2 78 7.1 44.7
02:40 1023 30.21 853 25.19 10.6 51.1 80 7.3 45.1
02:45 1023 30.21 853 25.19 10.5 50.9 82 7.5 45.5
02:50 1023 30.21 853 25.19 10.5 50.8 82 7.5 45.5
02:55 1024 30.24 853 25.19 10.5 50.8 82 7.4 45.4
03:00 1024 30.24 853 25.19 10.4 50.8 82 7.5 45.6
03:05 1024 30.24 853 25.19 10.4 50.8 82 7.5 45.4
03:10 1024 30.24 853 25.19 10.5 50.8 83 7.7 45.8
03:15 1024 30.24 853 25.19 10.4 50.7 82 7.6 45.6
03:20 1024 30.24 853 25.19 10.4 50.7 83 7.7 45.9
03:25 1024 30.24 853 25.19 10.4 50.7 84 7.8 46
03:30 1024 30.24 853 25.19 10.4 50.7 84 7.9 46.2
03:35 1024 30.24 853 25.19 10.3 50.5 85 7.9 46.3
03:40 1024 30.24 853 25.19 10 49.9 87 8 46.3
03:45 1024 30.24 853 25.19 9.8 49.6 88 7.9 46.2
03:50 1024 30.24 853 25.19 9.6 49.3 89 8 46.4
03:55 1024 30.24 853 25.19 9.7 49.4 90 8.1 46.5
04:00 1024 30.24 853 25.19 9.6 49.4 90 8 46.5
04:05 1024 30.24 853 25.19 9.7 49.4 90 8.1 46.6
04:10 1024 30.24 853 25.19 9.6 49.3 90 8.1 46.6
04:15 1024 30.24 853 25.19 9.5 49.1 91 8.2 46.7
04:20 1024 30.24 853 25.19 9.4 49 92 8.1 46.6
04:25 1024 30.24 853 25.19 9.5 49.1 90 7.9 46.3
04:30 1024 30.24 853 25.19 9.6 49.3 87 7.5 45.5
04:35 1024 30.24 853 25.19 9.8 49.6 86 7.6 45.7
04:40 1024 30.24 853 25.19 9.8 49.6 87 7.6 45.7
04:45 1024 30.24 853 25.19 9.7 49.5 85 7.4 45.3
04:50 1024 30.24 853 25.19 9.7 49.5 85 7.4 45.3
04:55 1024 30.24 853 25.19 9.7 49.5 85 7.3 45.2
05:00 1024 30.24 853 25.19 9.7 49.5 85 7.3 45.2
05:05 1024 30.24 853 25.19 9.8 49.7 86 7.6 45.7
05:10 1024 30.24 853 25.19 9.8 49.7 85 7.4 45.3
05:15 1024 30.24 853 25.19 9.9 49.8 85 7.4 45.3
05:20 1024 30.24 853 25.19 9.9 49.8 85 7.5 45.4
05:25 1024 30.24 853 25.19 9.9 49.8 84 7.3 45.1
05:30 1024 30.24 853 25.19 9.9 49.9 84 7.4 45.3
05:35 1024 30.24 853 25.19 9.9 49.9 84 7.4 45.3
05:40 1024 30.24 853 25.19 10 49.9 83 7.3 45.1
05:45 1024 30.24 853 25.19 10 50 81 7 44.6
05:50 1024 30.24 853 25.19 10.1 50.1 81 7 44.6
05:55 1024 30.24 853 25.19 10.1 50.2 82 7.2 45
06:00 1024 30.24 853 25.19 10.2 50.3 84 7.7 45.8
06:05 1024 30.24 853 25.19 10.2 50.4 86 7.9 46.3
06:10 1024 30.24 853 25.19 10.1 50.2 85 7.7 45.8
06:15 1024 30.24 853 25.19 10.1 50.2 83 7.3 45.1
06:20 1024 30.24 853 25.19 10.2 50.3 82 7.3 45.1
06:25 1024 30.24 853 25.19 10.2 50.4 81 7.2 44.9
06:30 1024 30.24 853 25.19 10.2 50.4 85 7.8 46
06:35 1024 30.24 853 25.19 10.2 50.4 85 7.9 46.2
06:40 1024 30.24 853 25.19 10.1 50.2 86 7.9 46.1
06:45 1024 30.24 853 25.19 10.1 50.2 85 7.7 45.9
06:50 1024 30.24 853 25.19 10.2 50.3 86 7.9 46.2
06:55 1024 30.24 854 25.22 10.3 50.5 88 8.4 47
07:00 1024 30.24 854 25.22 10.3 50.5 89 8.5 47.3
07:05 1024 30.24 854 25.22 10.2 50.4 88 8.4 47.1
07:10 1024 30.24 854 25.22 10.2 50.4 89 8.5 47.3
07:15 1025 30.27 854 25.22 10.2 50.4 89 8.5 47.3
07:20 1025 30.27 854 25.22 10.2 50.4 88 8.3 46.9
07:25 1025 30.27 854 25.22 10.4 50.8 87 8.4 47.2
07:30 1025 30.27 854 25.22 10.5 51 88 8.7 47.6
07:35 1025 30.27 854 25.22 10.3 50.6 86 8 46.5
07:40 1025 30.27 854 25.22 10.2 50.3 87 8.2 46.8
07:45 1025 30.27 854 25.22 10.2 50.4 87 8.1 46.6
07:50 1025 30.27 854 25.22 10.2 50.4 88 8.3 46.9
07:55 1025 30.27 854 25.22 10.4 50.6 88 8.4 47.1
08:00 1025 30.27 854 25.22 10.3 50.6 88 8.4 47.1
08:05 1025 30.27 854 25.22 10.1 50.2 88 8.2 46.7
08:10 1025 30.27 854 25.22 9.9 49.8 89 8.2 46.8
08:15 1025 30.27 854 25.22 9.8 49.6 89 8.2 46.7
08:20 1025 30.27 854 25.22 9.6 49.3 91 8.2 46.7
08:25 1025 30.27 854 25.22 9.6 49.3 91 8.2 46.7
08:30 1025 30.27 855 25.25 9.7 49.5 90 8.1 46.6
08:35 1025 30.27 855 25.25 9.6 49.3 91 8.2 46.8
08:40 1025 30.27 855 25.25 9.8 49.6 90 8.2 46.8
08:45 1025 30.27 855 25.25 9.8 49.7 89 8.1 46.6
08:50 1025 30.27 855 25.25 9.7 49.4 89 8 46.4
08:55 1026 30.3 855 25.25 9.8 49.6 90 8.1 46.6
09:00 1026 30.3 855 25.25 9.9 49.8 89 8.1 46.7
09:05 1026 30.3 855 25.25 9.9 49.9 90 8.3 47
09:10 1026 30.3 855 25.25 10.1 50.2 89 8.3 46.9
09:15 1026 30.3 855 25.25 10.2 50.3 88 8.3 47
09:20 1026 30.3 855 25.25 10.3 50.5 89 8.5 47.4
09:25 1026 30.3 855 25.25 10.3 50.5 86 8.1 46.7
09:30 1026 30.3 855 25.25 10.3 50.5 87 8.2 46.8
09:35 1026 30.3 855 25.25 10.4 50.8 88 8.5 47.3
09:40 1026 30.3 855 25.25 10.4 50.7 88 8.5 47.3
09:45 1026 30.3 855 25.25 10.5 50.9 87 8.5 47.3
09:50 1026 30.3 855 25.25 10.8 51.4 87 8.8 47.8
09:55 1026 30.3 855 25.25 11.3 52.3 82 8.4 47.1
10:00 1026 30.3 855 25.25 11.7 53.1 79 8.2 46.8
10:05 1026 30.3 855 25.25 11.7 53.1 82 8.8 47.8
10:10 1026 30.3 855 25.25 11.9 53.5 79 8.5 47.3
10:15 1026 30.3 855 25.25 11.8 53.3 80 8.6 47.5
10:20 1026 30.3 855 25.25 12.1 53.8 79 8.6 47.5
10:25 1026 30.3 855 25.25 12.3 54.1 79 8.7 47.7
10:30 1026 30.3 855 25.25 12.2 54 79 8.8 47.8
10:35 1026 30.3 855 25.25 12.3 54.2 78 8.5 47.4
10:40 1026 30.3 855 25.25 12.3 54.2 79 8.9 48
10:45 1026 30.3 855 25.25 12.6 54.6 79 9 48.1
10:50 1026 30.3 855 25.25 12.4 54.3 80 9 48.2
10:55 1026 30.3 855 25.25 12.6 54.6 79 8.9 48.1
11:00 1026 30.3 855 25.25 12.3 54.1 82 9.2 48.6
11:05 1026 30.3 855 25.25 11.9 53.4 81 8.7 47.7
11:10 1026 30.3 855 25.25 12.1 53.7 82 9 48.3
11:15 1026 30.3 855 25.25 12.3 54.2 80 9 48.2
11:20 1026 30.3 855 25.25 12.8 55 79 9.3 48.7
11:25 1026 30.3 855 25.25 13 55.3 78 9.2 48.6
11:30 1026 30.3 855 25.25 12.6 54.7 79 9.1 48.4
11:35 1026 30.3 855 25.25 13 55.3 74 8.4 47.2
11:40 1026 30.3 855 25.25 13 55.4 79 9.4 48.9
11:45 1026 30.3 855 25.25 13.6 56.5 74 9.1 48.4
11:50 1026 30.3 855 25.25 14 57.2 71 8.8 47.9
11:55 1026 30.3 855 25.25 14.5 58.1 67 8.5 47.4
12:00 1026 30.3 855 25.25 14.7 58.4 69 9.2 48.6
12:05 1026 30.3 855 25.25 15.2 59.4 66 9 48.2
12:10 1026 30.3 855 25.25 14.9 58.9 67 8.9 48
12:15 1026 30.3 855 25.25 14.5 58.1 67 8.5 47.3
12:20 1026 30.3 855 25.25 14.9 58.9 61 7.7 45.8
12:25 1026 30.3 855 25.25 16.1 61 57 7.8 46
12:30 1026 30.3 855 25.25 16.9 62.5 56 8.2 46.7
12:35 1026 30.3 855 25.25 16.2 61.1 58 8 46.4
12:40 1026 30.3 855 25.25 16.4 61.5 56 7.7 45.8
12:45 1026 30.3 855 25.25 16.9 62.4 56 8 46.5
12:50 1026 30.3 855 25.25 16.8 62.3 56 8 46.4
12:55 1026 30.3 855 25.25 17.2 63 54 8 46.4
13:00 1026 30.3 855 25.25 17.6 63.7 51 7.6 45.6
13:05 1026 30.3 855 25.25 18 64.4 50 7.5 45.4
13:10 1026 30.3 855 25.25 17.9 64.2 48 6.9 44.4
13:15 1026 30.3 855 25.25 17.9 64.3 50 7.4 45.3
13:20 1026 30.3 855 25.25 18.1 64.5 54 8.8 47.8
13:25 1026 30.3 855 25.25 17.1 62.8 57 8.6 47.5
13:30 1026 30.3 855 25.25 17.7 63.9 53 8.2 46.7
13:35 1026 30.3 855 25.25 19.3 66.7 49 8.3 47
13:40 1026 30.3 855 25.25 18.8 65.8 51 8.5 47.3
13:45 1026 30.3 855 25.25 18.3 65 52 8.3 47
13:50 1026 30.3 855 25.25 17.4 63.2 54 8.2 46.7
13:55 1026 30.3 855 25.25 17.1 62.7 53 7.5 45.5
14:00 1026 30.3 855 25.25 17.8 64.1 53 8.1 46.6
14:05 1026 30.3 855 25.25 17.9 64.2 53 8.2 46.8
14:10 1026 30.3 855 25.25 17.4 63.2 55 8.3 47
14:15 1026 30.3 855 25.25 16.8 62.2 56 7.9 46.3
14:20 1026 30.3 855 25.25 16.8 62.3 56 8.2 46.7
14:25 1026 30.3 855 25.25 16.3 61.4 58 8.2 46.7
14:30 1026 30.3 855 25.25 16.5 61.6 57 8.1 46.5
14:35 1025 30.27 855 25.25 16.5 61.6 55 7.5 45.4
14:40 1025 30.27 855 25.25 16.9 62.4 55 7.9 46.3
14:45 1025 30.27 855 25.25 17.3 63.1 52 7.5 45.5
14:50 1025 30.27 855 25.25 17.4 63.4 51 7.3 45.1
14:55 1025 30.27 854 25.22 18.3 65 47 7 44.6
15:00 1025 30.27 854 25.22 18.8 65.8 46 7.1 44.7
15:05 1025 30.27 854 25.22 19 66.3 45 7 44.7
15:10 1025 30.27 854 25.22 19.9 67.9 43 7 44.7
15:15 1025 30.27 854 25.22 20.7 69.2 41 7.3 45.1
15:20 1025 30.27 854 25.22 20 68.1 40 6.3 43.3
15:25 1025 30.27 854 25.22 20.1 68.2 38 5.7 42.2
15:30 1025 30.27 854 25.22 20.5 68.8 43 7.5 45.5
15:35 1025 30.27 854 25.22 20.1 68.2 41 6.5 43.8
15:40 1025 30.27 854 25.22 20.5 68.9 42 7.3 45.2
15:45 1025 30.27 854 25.22 20.2 68.3 41 6.8 44.2
15:50 1025 30.27 854 25.22 20.3 68.5 40 6.6 43.8
15:55 1025 30.27 854 25.22 20.4 68.8 38 5.7 42.3
16:00 1025 30.27 854 25.22 20.7 69.3 37 5.7 42.2
16:05 1025 30.27 854 25.22 21 69.9 37 5.9 42.5
16:10 1025 30.27 854 25.22 19.9 67.9 44 7.3 45.2
16:15 1025 30.27 854 25.22 19.3 66.8 43 6.7 44
16:20 1025 30.27 854 25.22 19.4 67 43 6.6 43.8
16:25 1025 30.27 854 25.22 19.6 67.2 45 7.4 45.2
16:30 1025 30.27 854 25.22 18.7 65.6 43 5.8 42.5
16:35 1025 30.27 854 25.22 19.5 67.2 43 6.7 44.1
16:40 1025 30.27 854 25.22 19.9 67.8 44 7.6 45.6
16:45 1025 30.27 854 25.22 20.4 68.6 42 7.1 44.8
16:50 1025 30.27 854 25.22 20.1 68.2 42 6.8 44.3
16:55 1025 30.27 854 25.22 20.1 68.1 41 6.6 43.9
17:00 1025 30.27 854 25.22 20.2 68.3 39 5.7 42.3
17:05 1025 30.27 854 25.22 20.6 69 38 5.9 42.7
17:10 1025 30.27 854 25.22 20.1 68.2 39 5.8 42.5
17:15 1025 30.27 854 25.22 19.9 67.8 41 6.3 43.4
17:20 1025 30.27 854 25.22 19.1 66.3 41 5.7 42.3
17:25 1025 30.27 854 25.22 19.9 67.9 40 6.2 43.2
17:30 1025 30.27 854 25.22 20.2 68.4 41 6.6 43.9
17:35 1025 30.27 854 25.22 20 68 43 7.3 45.2
17:40 1025 30.27 854 25.22 19.6 67.2 44 7 44.7
17:45 1025 30.27 854 25.22 19 66.2 45 7 44.6
17:50 1025 30.27 854 25.22 19.3 66.7 43 6.4 43.6
17:55 1025 30.27 854 25.22 19.5 67.1 44 7.2 45
18:00 1025 30.27 854 25.22 19.2 66.6 42 6.3 43.4
18:05 1025 30.27 854 25.22 19.4 66.9 43 6.5 43.7
18:10 1025 30.27 854 25.22 19.2 66.5 43 6.5 43.6
18:15 1025 30.27 854 25.22 19.7 67.4 40 5.9 42.6
18:20 1025 30.27 854 25.22 19.2 66.6 42 6 42.9
18:25 1025 30.27 854 25.22 19.5 67.1 43 6.7 44
18:30 1025 30.27 854 25.22 19.4 67 43 6.8 44.3
18:35 1025 30.27 854 25.22 19.4 67 42 6.5 43.7
18:40 1025 30.27 854 25.22 19 66.1 44 6.7 44.1
18:45 1025 30.27 854 25.22 19.1 66.5 44 6.7 44
18:50 1025 30.27 854 25.22 19 66.3 43 6.3 43.4
18:55 1025 30.27 854 25.22 18.5 65.3 48 7.4 45.3
19:00 1025 30.27 854 25.22 18.1 64.5 46 6.4 43.5
19:05 1025 30.27 854 25.22 18 64.4 47 6.6 43.8
19:10 1025 30.27 854 25.22 18 64.3 46 6.3 43.3
19:15 1025 30.27 854 25.22 18.2 64.7 47 6.7 44.1
19:20 1025 30.27 854 25.22 18.3 64.9 47 6.9 44.4
19:25 1025 30.27 854 25.22 18.2 64.8 48 7 44.6
19:30 1025 30.27 854 25.22 18.1 64.6 47 6.8 44.3
19:35 1025 30.27 854 25.22 18 64.4 47 6.8 44.2
19:40 1025 30.27 854 25.22 18 64.4 48 7 44.6
19:45 1025 30.27 854 25.22 17.9 64.3 49 7.1 44.8
19:50 1025 30.27 854 25.22 17.8 64 49 6.9 44.5
19:55 1025 30.27 854 25.22 17.8 64 49 7 44.7
20:00 1025 30.27 854 25.22 17.7 63.9 51 7.6 45.7
20:05 1025 30.27 854 25.22 17.6 63.7 51 7.4 45.3
20:10 1025 30.27 854 25.22 17.5 63.4 51 7.3 45.1
20:15 1025 30.27 854 25.22 17.3 63.2 51 7.2 44.9
20:20 1025 30.27 855 25.25 17.1 62.8 53 7.4 45.4
20:25 1025 30.27 855 25.25 16.8 62.2 56 8 46.3
20:30 1025 30.27 855 25.25 16.5 61.7 61 9 48.2
20:35 1025 30.27 855 25.25 16.3 61.4 59 8.4 47.1
20:40 1025 30.27 855 25.25 16.2 61.1 58 8 46.5
20:45 1025 30.27 855 25.25 15.8 60.5 59 7.8 46
20:50 1025 30.27 855 25.25 15.5 59.9 59 7.7 45.8
20:55 1026 30.3 855 25.25 15.4 59.7 60 7.7 45.8
21:00 1026 30.3 855 25.25 15.2 59.3 60 7.5 45.5
21:05 1026 30.3 855 25.25 15 59.1 61 7.7 45.9
21:10 1026 30.3 855 25.25 14.9 58.8 63 8 46.4
21:15 1026 30.3 855 25.25 14.3 57.8 65 7.8 46.1
21:20 1026 30.3 855 25.25 14.1 57.4 66 7.8 46
21:25 1026 30.3 855 25.25 14 57.2 65 7.6 45.6
21:30 1026 30.3 855 25.25 14.1 57.3 66 7.8 46.1
21:35 1026 30.3 855 25.25 13.9 57 67 7.9 46.3
21:40 1026 30.3 855 25.25 13.8 56.8 68 7.9 46.3
21:45 1026 30.3 855 25.25 13.6 56.5 69 8 46.4
21:50 1026 30.3 855 25.25 13.6 56.4 68 7.9 46.2
21:55 1026 30.3 855 25.25 13.7 56.6 68 7.9 46.2
22:00 1026 30.3 855 25.25 13.8 56.8 67 7.8 46.1
22:05 1026 30.3 855 25.25 13.9 57 67 7.8 46.1
22:10 1026 30.3 855 25.25 13.9 57.1 67 8 46.4
22:15 1026 30.3 855 25.25 13.8 56.8 68 8 46.4
22:20 1026 30.3 855 25.25 13.6 56.4 69 8 46.3
22:25 1026 30.3 855 25.25 13.4 56.2 69 7.9 46.2
22:30 1026 30.3 855 25.25 13.4 56.1 69 7.8 46.1
22:35 1026 30.3 856 25.28 13.3 56 69 7.8 46
22:40 1026 30.3 856 25.28 13.3 55.9 69 7.8 46
22:45 1026 30.3 856 25.28 13.3 55.9 68 7.6 45.7
22:50 1026 30.3 856 25.28 13.3 55.9 69 7.8 46
22:55 1026 30.3 856 25.28 13.2 55.7 69 7.7 45.9
23:00 1026 30.3 856 25.28 13 55.4 70 7.7 45.8
23:05 1026 30.3 856 25.28 12.9 55.3 70 7.6 45.6
23:10 1026 30.3 856 25.28 12.9 55.3 70 7.6 45.7
23:15 1026 30.3 856 25.28 12.8 55.1 71 7.7 45.8
23:20 1026 30.3 856 25.28 12.7 54.9 71 7.6 45.7
23:25 1026 30.3 856 25.28 12.7 54.9 71 7.6 45.7
23:30 1026 30.3 856 25.28 12.8 55 70 7.6 45.6
23:35 1026 30.3 856 25.28 12.8 55.1 71 7.6 45.7
23:40 1026 30.3 856 25.28 12.7 54.9 71 7.7 45.9
23:45 1026 30.3 856 25.28 12.5 54.5 73 7.8 46
23:50 1026 30.3 856 25.28 12.2 54 74 7.8 46
23:55 1026 30.3 856 25.28 12 53.6 75 7.8 46
24:00 1026 30.3 856 25.28 11.9 53.4 76 7.8 46